createdAt,value
2022-10-28T00:01:14.112Z,7.45
2022-10-28T00:03:43.715Z,7.43
2022-10-28T00:06:20.447Z,7.43
2022-10-28T00:08:47.514Z,7.41
2022-10-28T00:11:17.651Z,7.28
2022-10-28T00:13:45.815Z,7.23
2022-10-28T00:16:19.116Z,7.23
2022-10-28T00:18:46.647Z,7.23
2022-10-28T00:21:19.458Z,7.25
2022-10-28T00:23:46.719Z,7.17
2022-10-28T00:26:16.902Z,7.14
2022-10-28T00:28:46.900Z,7.09
2022-10-28T00:31:15.574Z,7.04
2022-10-28T00:33:42.260Z,7.04
2022-10-28T00:36:10.134Z,7.01
2022-10-28T00:38:37.002Z,6.99
2022-10-28T00:41:04.240Z,6.98
2022-10-28T00:43:39.735Z,6.93
2022-10-28T00:46:16.379Z,6.92
2022-10-28T00:48:45.445Z,6.93
2022-10-28T00:51:13.419Z,6.93
2022-10-28T00:53:44.838Z,6.89
2022-10-28T00:56:12.562Z,6.77
2022-10-28T00:58:39.693Z,6.81
2022-10-28T01:01:06.441Z,6.79
2022-10-28T01:03:33.370Z,6.84
2022-10-28T01:06:01.639Z,6.86
2022-10-28T01:08:28.491Z,6.79
2022-10-28T01:10:58.196Z,6.86
2022-10-28T01:13:44.549Z,6.86
2022-10-28T01:16:26.459Z,6.85
2022-10-28T01:19:00.519Z,6.87
2022-10-28T01:22:06.002Z,6.88
2022-10-28T01:24:44.614Z,6.88
2022-10-28T01:28:02.110Z,6.89
2022-10-28T01:30:40.610Z,6.81
2022-10-28T01:33:19.085Z,6.76
2022-10-28T01:35:53.300Z,6.75
2022-10-28T01:38:28.801Z,6.82
2022-10-28T01:41:07.325Z,6.76
2022-10-28T01:43:54.033Z,6.74
2022-10-28T01:46:24.310Z,6.68
2022-10-28T01:48:53.978Z,6.72
2022-10-28T01:51:26.879Z,6.66
2022-10-28T01:53:57.355Z,6.66
2022-10-28T01:56:30.690Z,6.66
2022-10-28T01:59:00.939Z,6.70
2022-10-28T02:01:30.273Z,6.70
2022-10-28T02:03:58.207Z,6.65
2022-10-28T02:06:28.924Z,6.69
2022-10-28T02:09:05.250Z,6.69
2022-10-28T02:11:59.655Z,6.70
2022-10-28T02:14:50.500Z,6.68
2022-10-28T02:17:39.366Z,6.66
2022-10-28T02:20:27.809Z,6.56
2022-10-28T02:23:11.424Z,6.64
2022-10-28T02:25:46.901Z,6.56
2022-10-28T02:28:21.765Z,6.66
2022-10-28T02:30:51.789Z,6.60
2022-10-28T02:33:22.576Z,6.64
2022-10-28T02:35:54.784Z,6.62
2022-10-28T02:38:33.513Z,6.62
2022-10-28T02:41:06.636Z,6.63
2022-10-28T02:43:36.462Z,6.48
2022-10-28T02:46:04.823Z,6.50
2022-10-28T02:48:43.576Z,6.55
2022-10-28T02:51:23.286Z,6.54
2022-10-28T02:54:04.818Z,6.54
2022-10-28T02:56:36.961Z,6.45
2022-10-28T02:59:03.911Z,6.49
2022-10-28T03:01:30.747Z,6.46
2022-10-28T03:03:57.394Z,6.42
2022-10-28T03:08:55.729Z,6.47
2022-10-28T03:11:22.376Z,6.40
2022-10-28T03:13:48.983Z,6.35
2022-10-28T03:16:15.720Z,6.33
2022-10-28T03:18:42.860Z,6.41
2022-10-28T03:21:09.495Z,6.38
2022-10-28T03:23:36.226Z,6.29
2022-10-28T03:26:02.792Z,6.37
2022-10-28T03:28:29.448Z,6.32
2022-10-28T03:30:56.361Z,6.31
2022-10-28T03:33:23.151Z,6.36
2022-10-28T03:35:49.735Z,6.34
2022-10-28T03:38:16.552Z,6.43
2022-10-28T03:40:43.153Z,6.40
2022-10-28T03:43:09.770Z,6.32
2022-10-28T03:45:36.419Z,6.35
2022-10-28T03:48:03.263Z,6.43
2022-10-28T03:50:29.920Z,6.43
2022-10-28T03:52:56.522Z,6.39
2022-10-28T03:55:23.979Z,6.39
2022-10-28T03:57:50.789Z,6.41
2022-10-28T04:00:18.213Z,6.39
2022-10-28T04:02:51.154Z,6.38
2022-10-28T04:05:21.843Z,6.39
2022-10-28T04:07:49.048Z,6.27
2022-10-28T04:10:15.711Z,6.35
2022-10-28T04:12:42.518Z,6.31
2022-10-28T04:15:09.404Z,6.19
2022-10-28T04:17:36.146Z,6.17
2022-10-28T04:20:03.214Z,6.17
2022-10-28T04:22:29.886Z,6.13
2022-10-28T04:24:56.553Z,6.16
2022-10-28T04:27:23.326Z,6.12
2022-10-28T04:29:50.071Z,6.14
2022-10-28T04:32:16.814Z,6.09
2022-10-28T04:34:43.666Z,6.14
2022-10-28T04:37:10.363Z,6.15
2022-10-28T04:39:36.955Z,6.06
2022-10-28T04:42:03.735Z,6.11
2022-10-28T04:44:30.331Z,6.08
2022-10-28T04:46:57.106Z,6.00
2022-10-28T04:49:23.788Z,6.07
2022-10-28T04:51:50.399Z,5.99
2022-10-28T04:54:17.122Z,5.98
2022-10-28T04:56:44.226Z,6.00
2022-10-28T04:59:10.930Z,5.99
2022-10-28T05:01:37.936Z,6.04
2022-10-28T05:04:04.962Z,5.99
2022-10-28T05:06:31.723Z,6.05
2022-10-28T05:08:58.504Z,5.93
2022-10-28T05:11:25.302Z,5.95
2022-10-28T05:13:53.221Z,6.01
2022-10-28T05:16:20.353Z,6.10
2022-10-28T05:18:47.307Z,5.94
2022-10-28T05:21:14.057Z,6.01
2022-10-28T05:23:40.793Z,6.03
2022-10-28T05:26:07.652Z,6.04
2022-10-28T05:28:34.435Z,6.08
2022-10-28T05:31:01.059Z,6.06
2022-10-28T05:33:27.822Z,6.06
2022-10-28T05:35:54.567Z,6.15
2022-10-28T05:38:21.227Z,6.13
2022-10-28T05:40:47.858Z,6.08
2022-10-28T05:43:14.616Z,6.15
2022-10-28T05:45:41.280Z,6.19
2022-10-28T05:48:08.159Z,6.19
2022-10-28T05:50:35.149Z,6.26
2022-10-28T05:53:02.100Z,6.25
2022-10-28T05:55:29.729Z,6.14
2022-10-28T05:57:57.297Z,6.18
2022-10-28T06:00:26.183Z,6.15
2022-10-28T06:02:53.253Z,6.26
2022-10-28T06:05:20.458Z,6.11
2022-10-28T06:07:47.548Z,6.34
2022-10-28T06:10:14.245Z,6.23
2022-10-28T06:12:39.360Z,6.36
2022-10-28T06:15:06.670Z,6.32
2022-10-28T06:17:33.419Z,6.34
2022-10-28T06:20:00.381Z,6.35
2022-10-28T06:22:27.000Z,6.41
2022-10-28T06:24:53.705Z,6.42
2022-10-28T06:27:20.398Z,6.48
2022-10-28T06:29:46.986Z,6.51
2022-10-28T06:32:13.786Z,6.52
2022-10-28T06:34:40.495Z,6.49
2022-10-28T06:37:09.044Z,6.51
2022-10-28T06:39:37.043Z,6.58
2022-10-28T06:42:03.822Z,6.61
2022-10-28T06:44:30.511Z,6.69
2022-10-28T06:46:58.639Z,6.75
2022-10-28T06:49:25.366Z,6.80
2022-10-28T06:51:52.020Z,6.87
2022-10-28T06:54:18.837Z,6.97
2022-10-28T06:56:47.781Z,7.06
2022-10-28T06:59:14.397Z,7.06
2022-10-28T07:01:41.240Z,7.14
2022-10-28T07:04:12.883Z,7.12
2022-10-28T07:06:40.512Z,7.29
2022-10-28T07:09:07.714Z,7.30
2022-10-28T07:11:34.551Z,7.32
2022-10-28T07:14:01.387Z,7.34
2022-10-28T07:16:28.125Z,7.40
2022-10-28T07:18:54.910Z,7.53
2022-10-28T07:21:24.484Z,7.59
2022-10-28T07:23:51.114Z,7.62
2022-10-28T07:26:17.844Z,7.58
2022-10-28T07:28:44.478Z,7.72
2022-10-28T07:33:42.899Z,7.92
2022-10-28T07:36:10.529Z,8.04
2022-10-28T07:38:37.414Z,8.06
2022-10-28T07:41:09.129Z,8.25
2022-10-28T07:43:37.721Z,8.43
2022-10-28T07:46:06.657Z,8.56
2022-10-28T07:48:34.808Z,8.69
2022-10-28T07:51:03.752Z,8.80
2022-10-28T07:53:30.602Z,8.99
2022-10-28T07:56:03.103Z,9.14
2022-10-28T07:58:29.922Z,9.27
2022-10-28T08:00:57.005Z,9.46
2022-10-28T08:03:31.118Z,9.55
2022-10-28T08:06:11.433Z,9.74
2022-10-28T08:08:38.788Z,9.83
2022-10-28T08:11:17.305Z,10.19
2022-10-28T08:13:44.031Z,10.39
2022-10-28T08:16:11.260Z,10.52
2022-10-28T08:18:39.531Z,10.81
2022-10-28T08:21:08.744Z,10.92
2022-10-28T08:23:36.292Z,11.12
2022-10-28T08:26:03.226Z,11.40
2022-10-28T08:28:29.904Z,11.62
2022-10-28T08:31:09.216Z,11.78
2022-10-28T08:33:38.126Z,12.02
2022-10-28T08:36:05.444Z,12.24
2022-10-28T08:38:32.225Z,12.43
2022-10-28T08:41:26.561Z,12.63
2022-10-28T08:44:28.914Z,12.81
2022-10-28T08:47:08.295Z,13.00
2022-10-28T08:49:37.868Z,13.17
2022-10-28T08:52:19.879Z,13.36
2022-10-28T08:55:12.689Z,13.46
2022-10-28T08:57:43.912Z,13.60
2022-10-28T09:00:26.765Z,13.85
2022-10-28T09:03:07.225Z,13.97
2022-10-28T09:05:34.161Z,14.04
2022-10-28T09:08:02.366Z,14.27
2022-10-28T09:11:10.750Z,14.51
2022-10-28T09:13:40.192Z,14.70
2022-10-28T09:16:16.971Z,14.87
2022-10-28T09:18:57.406Z,14.99
2022-10-28T09:21:32.153Z,15.21
2022-10-28T09:24:03.303Z,15.29
2022-10-28T09:27:17.630Z,15.44
2022-10-28T09:30:21.989Z,15.57
2022-10-28T09:33:30.490Z,15.76
2022-10-28T09:35:58.251Z,15.84
2022-10-28T09:38:32.032Z,15.94
2022-10-28T09:41:05.839Z,16.05
2022-10-28T09:43:35.384Z,16.14
2022-10-28T09:46:08.056Z,16.25
2022-10-28T09:48:39.414Z,16.28
2022-10-28T09:51:06.387Z,16.24
2022-10-28T09:53:43.949Z,16.39
2022-10-28T09:56:10.981Z,16.45
2022-10-28T09:58:44.680Z,16.56
2022-10-28T10:01:11.430Z,16.66
2022-10-28T10:03:40.065Z,16.73
2022-10-28T10:06:17.128Z,16.84
2022-10-28T10:08:45.539Z,16.86
2022-10-28T10:11:24.965Z,16.96
2022-10-28T10:13:54.171Z,17.10
2022-10-28T10:16:53.724Z,17.15
2022-10-28T10:19:20.544Z,17.10
2022-10-28T10:21:49.870Z,17.15
2022-10-28T10:24:33.726Z,17.17
2022-10-28T10:27:17.394Z,17.22
2022-10-28T10:29:46.039Z,17.29
2022-10-28T10:32:26.856Z,17.37
2022-10-28T10:35:26.602Z,17.49
2022-10-28T10:37:55.564Z,17.49
2022-10-28T10:40:33.914Z,17.52
2022-10-28T10:43:24.756Z,17.55
2022-10-28T10:46:13.275Z,17.69
2022-10-28T10:48:39.858Z,17.66
2022-10-28T10:51:27.456Z,17.77
2022-10-28T10:53:58.022Z,17.93
2022-10-28T10:56:33.190Z,18.01
2022-10-28T10:59:02.861Z,18.09
2022-10-28T11:01:35.732Z,18.09
2022-10-28T11:04:08.616Z,18.18
2022-10-28T11:06:42.286Z,18.09
2022-10-28T11:09:35.544Z,18.22
2022-10-28T11:12:14.909Z,18.18
2022-10-28T11:14:55.166Z,18.21
2022-10-28T11:20:25.565Z,18.28
2022-10-28T11:23:10.569Z,18.38
2022-10-28T11:25:41.717Z,18.41
2022-10-28T11:28:17.441Z,18.46
2022-10-28T11:34:00.647Z,18.50
2022-10-28T11:36:44.818Z,18.51
2022-10-28T11:39:33.758Z,18.62
2022-10-28T11:42:03.454Z,18.72
2022-10-28T11:44:44.910Z,18.71
2022-10-28T11:47:20.304Z,18.77
2022-10-28T11:50:02.767Z,18.77
2022-10-28T11:52:45.254Z,18.92
2022-10-28T11:55:26.102Z,18.88
2022-10-28T11:58:04.853Z,18.86
2022-10-28T12:00:37.597Z,18.92
2022-10-28T12:03:28.631Z,18.93
2022-10-28T12:06:24.357Z,18.95
2022-10-28T12:09:23.558Z,19.02
2022-10-28T12:12:13.586Z,19.03
2022-10-28T12:14:51.448Z,18.91
2022-10-28T12:17:35.221Z,18.96
2022-10-28T12:20:28.016Z,18.80
2022-10-28T12:22:58.767Z,18.82
2022-10-28T12:25:29.034Z,18.80
2022-10-28T12:28:03.830Z,18.89
2022-10-28T12:30:37.849Z,18.90
2022-10-28T12:33:13.599Z,18.92
2022-10-28T12:35:55.479Z,18.87
2022-10-28T12:38:38.989Z,18.83
2022-10-28T12:41:27.077Z,18.81
2022-10-28T12:43:56.845Z,18.83
2022-10-28T12:49:35.279Z,18.82
2022-10-28T12:52:14.745Z,18.78
2022-10-28T12:54:52.726Z,18.87
2022-10-28T12:57:22.433Z,18.88
2022-10-28T12:59:57.132Z,18.92
2022-10-28T13:02:39.439Z,18.86
2022-10-28T13:05:06.937Z,18.88
2022-10-28T13:07:53.612Z,18.91
2022-10-28T13:10:34.607Z,18.91
2022-10-28T13:13:16.391Z,18.91
2022-10-28T13:16:09.158Z,18.89
2022-10-28T13:18:46.983Z,18.92
2022-10-28T13:21:44.378Z,18.94
2022-10-28T13:24:25.038Z,18.97
2022-10-28T13:26:52.506Z,18.96
2022-10-28T13:29:28.250Z,18.95
2022-10-28T13:31:55.974Z,18.93
2022-10-28T13:34:48.092Z,18.90
2022-10-28T13:37:21.038Z,18.90
2022-10-28T13:39:47.903Z,18.83
2022-10-28T13:42:19.599Z,18.85
2022-10-28T13:45:03.919Z,18.75
2022-10-28T13:47:38.036Z,18.69
2022-10-28T13:50:04.790Z,18.74
2022-10-28T13:52:32.315Z,18.62
2022-10-28T13:54:59.302Z,18.59
2022-10-28T13:57:32.306Z,18.65
2022-10-28T14:03:00.946Z,18.58
2022-10-28T14:05:37.246Z,18.55
2022-10-28T14:08:17.971Z,18.50
2022-10-28T14:11:03.165Z,18.42
2022-10-28T14:13:35.487Z,18.39
2022-10-28T14:16:20.423Z,18.36
2022-10-28T14:19:02.261Z,18.28
2022-10-28T14:21:43.867Z,18.19
2022-10-28T14:24:12.427Z,18.03
2022-10-28T14:27:21.023Z,17.96
2022-10-28T14:30:18.925Z,17.89
2022-10-28T14:33:00.650Z,17.80
2022-10-28T14:35:33.876Z,17.61
2022-10-28T14:38:18.321Z,17.52
2022-10-28T14:40:45.031Z,17.47
2022-10-28T14:43:30.678Z,17.31
2022-10-28T14:46:36.096Z,17.13
2022-10-28T14:49:04.276Z,16.96
2022-10-28T14:51:39.999Z,16.78
2022-10-28T14:54:13.737Z,16.66
2022-10-28T14:56:41.486Z,16.52
2022-10-28T14:59:39.908Z,16.40
2022-10-28T15:02:17.034Z,16.23
2022-10-28T15:04:46.203Z,16.10
2022-10-28T15:07:19.434Z,15.94
2022-10-28T15:09:53.740Z,15.68
2022-10-28T15:12:22.913Z,15.56
2022-10-28T15:14:52.351Z,15.49
2022-10-28T15:17:28.472Z,15.33
2022-10-28T15:19:57.938Z,15.27
2022-10-28T15:22:28.181Z,15.21
2022-10-28T15:24:57.500Z,14.97
2022-10-28T15:27:26.100Z,14.86
2022-10-28T15:29:53.274Z,14.83
2022-10-28T15:32:19.907Z,14.72
2022-10-28T15:34:47.008Z,14.60
2022-10-28T15:37:36.565Z,14.39
2022-10-28T15:40:21.640Z,14.24
2022-10-28T15:43:06.004Z,14.10
2022-10-28T15:45:39.665Z,14.00
2022-10-28T15:48:14.770Z,13.85
2022-10-28T15:50:41.842Z,13.68
2022-10-28T15:53:11.163Z,13.59
2022-10-28T15:56:06.875Z,13.46
2022-10-28T15:58:29.306Z,13.39
2022-10-28T16:00:58.333Z,13.29
2022-10-28T16:03:47.403Z,13.20
2022-10-28T16:06:40.335Z,13.11
2022-10-28T16:09:09.756Z,13.00
2022-10-28T16:11:41.474Z,12.90
2022-10-28T16:14:28.016Z,12.73
2022-10-28T16:16:56.896Z,12.67
2022-10-28T16:19:32.240Z,12.64
2022-10-28T16:21:59.054Z,12.51
2022-10-28T16:24:25.629Z,12.48
2022-10-28T16:26:52.618Z,12.40
2022-10-28T16:29:19.282Z,12.32
2022-10-28T16:31:51.527Z,12.26
2022-10-28T16:34:18.192Z,12.23
2022-10-28T16:36:44.813Z,12.17
2022-10-28T16:39:13.129Z,12.06
2022-10-28T16:41:40.980Z,12.01
2022-10-28T16:44:18.248Z,11.88
2022-10-28T16:46:45.093Z,11.92
2022-10-28T16:49:11.955Z,11.74
2022-10-28T16:51:39.224Z,11.77
2022-10-28T16:54:05.960Z,11.63
2022-10-28T16:56:32.779Z,11.67
2022-10-28T16:58:59.536Z,11.53
2022-10-28T17:01:26.252Z,11.41
2022-10-28T17:03:53.184Z,11.45
2022-10-28T17:06:19.941Z,11.29
2022-10-28T17:09:02.327Z,11.20
2022-10-28T17:14:01.605Z,11.14
2022-10-28T17:16:28.230Z,10.98
2022-10-28T17:18:55.023Z,11.04
2022-10-28T17:21:21.671Z,10.91
2022-10-28T17:23:48.262Z,10.85
2022-10-28T17:26:15.218Z,10.84
2022-10-28T17:28:41.936Z,10.76
2022-10-28T17:31:09.157Z,10.67
2022-10-28T17:33:36.152Z,10.65
2022-10-28T17:36:05.323Z,10.59
2022-10-28T17:38:31.971Z,10.50
2022-10-28T17:40:58.833Z,10.29
2022-10-28T17:43:25.845Z,10.35
2022-10-28T17:45:52.657Z,10.36
2022-10-28T17:48:19.457Z,10.31
2022-10-28T17:50:54.567Z,10.28
2022-10-28T17:53:22.168Z,10.18
2022-10-28T17:56:03.677Z,10.19
2022-10-28T17:58:30.862Z,10.10
2022-10-28T18:00:59.531Z,9.97
2022-10-28T18:03:27.244Z,9.90
2022-10-28T18:05:54.447Z,9.83
2022-10-28T18:08:21.347Z,9.81
2022-10-28T18:10:56.534Z,9.78
2022-10-28T18:13:27.999Z,9.74
2022-10-28T18:15:54.602Z,9.76
2022-10-28T18:18:21.397Z,9.69
2022-10-28T18:20:54.916Z,9.67
2022-10-28T18:23:22.648Z,9.61
2022-10-28T18:26:02.431Z,9.46
2022-10-28T18:28:33.830Z,9.53
2022-10-28T18:31:06.810Z,9.49
2022-10-28T18:33:34.386Z,9.28
2022-10-28T18:36:22.110Z,9.43
2022-10-28T18:38:49.951Z,9.36
2022-10-28T18:41:19.149Z,9.32
2022-10-28T18:43:46.603Z,9.34
2022-10-28T18:46:14.451Z,9.34
2022-10-28T18:48:41.357Z,9.31
2022-10-28T18:51:11.064Z,9.23
2022-10-28T18:53:40.799Z,9.23
2022-10-28T18:56:10.382Z,9.18
2022-10-28T18:58:37.545Z,9.14
2022-10-28T19:01:15.359Z,9.08
2022-10-28T19:03:42.875Z,8.99
2022-10-28T19:06:12.681Z,8.94
2022-10-28T19:08:40.106Z,8.84
2022-10-28T19:11:08.056Z,8.85
2022-10-28T19:13:36.940Z,8.82
2022-10-28T19:16:04.904Z,8.66
2022-10-28T19:18:38.516Z,8.73
2022-10-28T19:21:12.828Z,8.55
2022-10-28T19:23:39.356Z,8.69
2022-10-28T19:26:07.384Z,8.63
2022-10-28T19:28:43.039Z,8.58
2022-10-28T19:31:12.535Z,8.51
2022-10-28T19:33:39.340Z,8.45
2022-10-28T19:36:17.662Z,8.35
2022-10-28T19:38:45.678Z,8.37
2022-10-28T19:41:15.216Z,8.36
2022-10-28T19:43:42.842Z,8.29
2022-10-28T19:46:12.921Z,8.33
2022-10-28T19:48:41.743Z,8.34
2022-10-28T19:51:09.631Z,8.26
2022-10-28T19:53:36.364Z,8.33
2022-10-28T19:56:04.418Z,8.28
2022-10-28T19:58:31.984Z,8.19
2022-10-28T20:01:01.606Z,8.13
2022-10-28T20:03:33.046Z,8.07
2022-10-28T20:06:02.694Z,8.09
2022-10-28T20:08:29.616Z,8.07
2022-10-28T20:11:01.109Z,8.03
2022-10-28T20:13:28.461Z,7.99
2022-10-28T20:15:55.702Z,7.91
2022-10-28T20:18:23.527Z,7.93
2022-10-28T20:20:50.349Z,7.91
2022-10-28T20:23:17.076Z,7.85
2022-10-28T20:25:51.570Z,7.92
2022-10-28T20:28:18.815Z,7.87
2022-10-28T20:30:56.107Z,7.83
2022-10-28T20:33:22.864Z,7.78
2022-10-28T20:35:49.457Z,7.79
2022-10-28T20:38:16.934Z,7.80
2022-10-28T20:40:48.381Z,7.74
2022-10-28T20:43:15.990Z,7.73
2022-10-28T20:45:42.913Z,7.64
2022-10-28T20:48:09.830Z,7.63
2022-10-28T20:50:36.591Z,7.59
2022-10-28T20:53:03.469Z,7.53
2022-10-28T20:55:30.530Z,7.56
2022-10-28T20:57:57.191Z,7.54
2022-10-28T21:00:24.037Z,7.55
2022-10-28T21:02:54.260Z,7.48
2022-10-28T21:05:21.337Z,7.47
2022-10-28T21:07:48.494Z,7.46
2022-10-28T21:10:17.325Z,7.35
2022-10-28T21:12:44.034Z,7.31
2022-10-28T21:15:11.162Z,7.22
2022-10-28T21:17:37.900Z,7.29
2022-10-28T21:20:04.990Z,7.23
2022-10-28T21:22:31.749Z,7.16
2022-10-28T21:24:58.971Z,7.12
2022-10-28T21:27:25.573Z,7.13
2022-10-28T21:29:52.614Z,7.10
2022-10-28T21:32:19.447Z,7.15
2022-10-28T21:34:46.062Z,7.19
2022-10-28T21:37:12.652Z,7.13
2022-10-28T21:39:39.872Z,7.12
2022-10-28T21:42:07.138Z,7.02
2022-10-28T21:44:33.732Z,6.98
2022-10-28T21:47:01.647Z,6.96
2022-10-28T21:49:28.227Z,7.01
2022-10-28T21:51:54.796Z,6.99
2022-10-28T21:54:21.491Z,7.04
2022-10-28T21:56:50.232Z,6.93
2022-10-28T21:59:17.337Z,6.99
2022-10-28T22:01:44.165Z,6.92
2022-10-28T22:04:10.889Z,6.89
2022-10-28T22:06:37.658Z,6.92
2022-10-28T22:09:04.740Z,6.91
2022-10-28T22:11:31.356Z,6.93
2022-10-28T22:14:00.677Z,6.93
2022-10-28T22:16:29.596Z,6.83
2022-10-28T22:18:58.217Z,6.65
2022-10-28T22:21:27.353Z,6.78
2022-10-28T22:23:54.041Z,6.76
2022-10-28T22:26:26.423Z,6.88
2022-10-28T22:28:53.227Z,6.86
2022-10-28T22:31:23.112Z,6.83
2022-10-28T22:33:49.854Z,6.82
2022-10-28T22:36:22.927Z,6.86
2022-10-28T22:38:49.852Z,6.71
2022-10-28T22:41:29.338Z,6.83
2022-10-28T22:43:58.722Z,6.80
2022-10-28T22:46:27.996Z,6.79
2022-10-28T22:48:55.439Z,6.78
2022-10-28T22:51:22.763Z,6.66
2022-10-28T22:53:50.178Z,6.76
2022-10-28T22:56:22.555Z,6.77
2022-10-28T22:58:53.856Z,6.69
2022-10-28T23:01:21.294Z,6.71
2022-10-28T23:03:49.761Z,6.81
2022-10-28T23:06:19.452Z,6.73
2022-10-28T23:08:47.097Z,6.73
2022-10-28T23:11:15.422Z,6.71
2022-10-28T23:13:42.259Z,6.59
2022-10-28T23:16:16.272Z,6.79
2022-10-28T23:18:43.882Z,6.77
2022-10-28T23:21:21.859Z,6.66
2022-10-28T23:23:54.066Z,6.54
2022-10-28T23:26:21.493Z,6.69
2022-10-28T23:28:57.263Z,6.68
2022-10-28T23:31:24.131Z,6.68
2022-10-28T23:33:51.133Z,6.60
2022-10-28T23:36:17.983Z,6.58
2022-10-28T23:38:44.739Z,6.57
2022-10-28T23:41:16.131Z,6.63
2022-10-28T23:43:43.100Z,6.57
2022-10-28T23:46:10.179Z,6.58
2022-10-28T23:48:36.784Z,6.60
2022-10-28T23:51:03.720Z,6.59
2022-10-28T23:53:31.099Z,6.58
2022-10-28T23:55:58.126Z,6.53
2022-10-28T23:58:25.191Z,6.57
